sensor_id;sensor_type;location;lat;lon;timestamp;temperature;humidity
41533;DHT22;27262;-35.248;149.138;2022-10-31T00:00:27;21.20;65.50
41533;DHT22;27262;-35.248;149.138;2022-10-31T00:02:58;21.20;65.60
41533;DHT22;27262;-35.248;149.138;2022-10-31T00:05:28;21.20;65.50
41533;DHT22;27262;-35.248;149.138;2022-10-31T00:07:59;21.30;65.50
41533;DHT22;27262;-35.248;149.138;2022-10-31T00:10:29;21.30;65.50
41533;DHT22;27262;-35.248;149.138;2022-10-31T00:13:00;21.30;65.50
41533;DHT22;27262;-35.248;149.138;2022-10-31T00:15:31;21.30;65.50
41533;DHT22;27262;-35.248;149.138;2022-10-31T00:18:03;21.30;65.40
41533;DHT22;27262;-35.248;149.138;2022-10-31T00:20:33;21.30;65.40
41533;DHT22;27262;-35.248;149.138;2022-10-31T00:23:05;21.30;65.40
41533;DHT22;27262;-35.248;149.138;2022-10-31T00:25:38;21.30;65.40
41533;DHT22;27262;-35.248;149.138;2022-10-31T00:28:11;21.30;65.40
41533;DHT22;27262;-35.248;149.138;2022-10-31T00:30:41;21.30;65.30
41533;DHT22;27262;-35.248;149.138;2022-10-31T00:33:11;21.30;65.30
41533;DHT22;27262;-35.248;149.138;2022-10-31T00:35:41;21.30;65.30
41533;DHT22;27262;-35.248;149.138;2022-10-31T00:38:12;21.30;65.30
41533;DHT22;27262;-35.248;149.138;2022-10-31T00:40:42;21.40;65.30
41533;DHT22;27262;-35.248;149.138;2022-10-31T00:43:12;21.40;65.30
41533;DHT22;27262;-35.248;149.138;2022-10-31T00:45:43;21.40;65.20
41533;DHT22;27262;-35.248;149.138;2022-10-31T00:48:14;21.40;65.20
41533;DHT22;27262;-35.248;149.138;2022-10-31T00:50:44;21.40;66.00
41533;DHT22;27262;-35.248;149.138;2022-10-31T00:53:15;21.40;65.30
41533;DHT22;27262;-35.248;149.138;2022-10-31T00:55:45;21.40;65.30
41533;DHT22;27262;-35.248;149.138;2022-10-31T00:58:15;21.40;65.20
41533;DHT22;27262;-35.248;149.138;2022-10-31T01:00:50;21.40;65.20
41533;DHT22;27262;-35.248;149.138;2022-10-31T01:03:26;21.50;65.30
41533;DHT22;27262;-35.248;149.138;2022-10-31T01:06:08;21.40;65.30
41533;DHT22;27262;-35.248;149.138;2022-10-31T01:08:39;21.50;66.10
41533;DHT22;27262;-35.248;149.138;2022-10-31T01:11:18;21.40;65.20
41533;DHT22;27262;-35.248;149.138;2022-10-31T01:13:51;21.50;65.20
41533;DHT22;27262;-35.248;149.138;2022-10-31T01:16:24;21.50;65.30
41533;DHT22;27262;-35.248;149.138;2022-10-31T01:18:55;21.50;65.30
41533;DHT22;27262;-35.248;149.138;2022-10-31T01:21:27;21.50;65.30
41533;DHT22;27262;-35.248;149.138;2022-10-31T01:23:58;21.50;65.20
41533;DHT22;27262;-35.248;149.138;2022-10-31T01:26:30;21.50;65.30
41533;DHT22;27262;-35.248;149.138;2022-10-31T01:29:05;21.50;65.30
41533;DHT22;27262;-35.248;149.138;2022-10-31T01:31:38;21.60;65.30
41533;DHT22;27262;-35.248;149.138;2022-10-31T01:34:14;21.60;65.30
41533;DHT22;27262;-35.248;149.138;2022-10-31T01:36:46;21.60;65.30
41533;DHT22;27262;-35.248;149.138;2022-10-31T01:39:20;21.60;65.30
41533;DHT22;27262;-35.248;149.138;2022-10-31T01:41:53;21.60;65.30
41533;DHT22;27262;-35.248;149.138;2022-10-31T01:47:12;21.60;65.30
41533;DHT22;27262;-35.248;149.138;2022-10-31T01:49:51;21.60;65.20
41533;DHT22;27262;-35.248;149.138;2022-10-31T01:52:33;21.60;65.40
41533;DHT22;27262;-35.248;149.138;2022-10-31T01:55:09;21.60;65.30
41533;DHT22;27262;-35.248;149.138;2022-10-31T01:57:43;21.60;65.40
41533;DHT22;27262;-35.248;149.138;2022-10-31T02:00:15;21.70;65.40
41533;DHT22;27262;-35.248;149.138;2022-10-31T02:02:46;21.70;65.50
41533;DHT22;27262;-35.248;149.138;2022-10-31T02:05:21;21.70;65.40
41533;DHT22;27262;-35.248;149.138;2022-10-31T02:08:28;21.70;65.40
41533;DHT22;27262;-35.248;149.138;2022-10-31T02:10:59;21.70;65.20
41533;DHT22;27262;-35.248;149.138;2022-10-31T02:13:30;21.70;65.50
41533;DHT22;27262;-35.248;149.138;2022-10-31T02:16:01;21.70;65.30
41533;DHT22;27262;-35.248;149.138;2022-10-31T02:18:31;21.70;65.30
41533;DHT22;27262;-35.248;149.138;2022-10-31T02:21:23;21.70;65.40
41533;DHT22;27262;-35.248;149.138;2022-10-31T02:24:28;21.70;65.40
41533;DHT22;27262;-35.248;149.138;2022-10-31T02:30:05;21.70;65.40
41533;DHT22;27262;-35.248;149.138;2022-10-31T02:33:06;21.70;65.30
41533;DHT22;27262;-35.248;149.138;2022-10-31T02:35:47;21.80;65.30
41533;DHT22;27262;-35.248;149.138;2022-10-31T02:41:28;21.70;65.30
41533;DHT22;27262;-35.248;149.138;2022-10-31T02:44:08;21.80;65.20
41533;DHT22;27262;-35.248;149.138;2022-10-31T02:47:05;21.70;65.30
41533;DHT22;27262;-35.248;149.138;2022-10-31T02:49:40;21.80;65.30
41533;DHT22;27262;-35.248;149.138;2022-10-31T02:52:34;21.70;65.30
41533;DHT22;27262;-35.248;149.138;2022-10-31T02:58:15;21.80;65.20
41533;DHT22;27262;-35.248;149.138;2022-10-31T03:09:46;21.80;65.40
41533;DHT22;27262;-35.248;149.138;2022-10-31T03:12:28;21.80;65.30
41533;DHT22;27262;-35.248;149.138;2022-10-31T03:15:04;21.80;65.30
41533;DHT22;27262;-35.248;149.138;2022-10-31T03:17:50;21.80;65.30
41533;DHT22;27262;-35.248;149.138;2022-10-31T03:21:05;21.80;65.20
41533;DHT22;27262;-35.248;149.138;2022-10-31T03:23:35;21.80;65.30
41533;DHT22;27262;-35.248;149.138;2022-10-31T03:26:07;21.80;65.30
41533;DHT22;27262;-35.248;149.138;2022-10-31T03:29:05;21.80;65.20
41533;DHT22;27262;-35.248;149.138;2022-10-31T03:31:38;21.90;65.20
41533;DHT22;27262;-35.248;149.138;2022-10-31T03:34:11;21.90;65.20
41533;DHT22;27262;-35.248;149.138;2022-10-31T03:36:43;21.90;65.30
41533;DHT22;27262;-35.248;149.138;2022-10-31T03:39:16;21.90;65.20
41533;DHT22;27262;-35.248;149.138;2022-10-31T03:42:17;21.90;65.20
41533;DHT22;27262;-35.248;149.138;2022-10-31T03:44:58;21.90;65.30
41533;DHT22;27262;-35.248;149.138;2022-10-31T03:47:29;21.90;65.30
41533;DHT22;27262;-35.248;149.138;2022-10-31T03:50:00;21.90;65.30
41533;DHT22;27262;-35.248;149.138;2022-10-31T03:52:35;21.90;65.30
41533;DHT22;27262;-35.248;149.138;2022-10-31T03:55:19;21.90;65.20
41533;DHT22;27262;-35.248;149.138;2022-10-31T04:00:31;21.90;65.20
41533;DHT22;27262;-35.248;149.138;2022-10-31T04:05:39;21.90;65.20
41533;DHT22;27262;-35.248;149.138;2022-10-31T04:08:14;21.90;65.20
41533;DHT22;27262;-35.248;149.138;2022-10-31T04:10:57;21.90;65.20
41533;DHT22;27262;-35.248;149.138;2022-10-31T04:13:31;21.90;65.20
41533;DHT22;27262;-35.248;149.138;2022-10-31T04:16:03;21.90;65.20
41533;DHT22;27262;-35.248;149.138;2022-10-31T04:18:41;21.90;65.20
41533;DHT22;27262;-35.248;149.138;2022-10-31T04:21:11;21.90;65.20
41533;DHT22;27262;-35.248;149.138;2022-10-31T04:23:41;22.00;65.20
41533;DHT22;27262;-35.248;149.138;2022-10-31T04:26:12;22.00;65.20
41533;DHT22;27262;-35.248;149.138;2022-10-31T04:28:42;22.00;65.20
41533;DHT22;27262;-35.248;149.138;2022-10-31T04:31:13;21.90;65.10
41533;DHT22;27262;-35.248;149.138;2022-10-31T04:33:44;21.90;65.60
41533;DHT22;27262;-35.248;149.138;2022-10-31T04:36:14;21.90;65.20
41533;DHT22;27262;-35.248;149.138;2022-10-31T04:38:44;21.90;65.20
41533;DHT22;27262;-35.248;149.138;2022-10-31T04:41:14;22.00;65.20
41533;DHT22;27262;-35.248;149.138;2022-10-31T04:43:44;22.00;65.30
41533;DHT22;27262;-35.248;149.138;2022-10-31T04:46:15;21.90;65.90
41533;DHT22;27262;-35.248;149.138;2022-10-31T04:48:45;22.00;65.20
41533;DHT22;27262;-35.248;149.138;2022-10-31T04:51:15;22.00;65.20
41533;DHT22;27262;-35.248;149.138;2022-10-31T04:53:45;22.00;65.20
41533;DHT22;27262;-35.248;149.138;2022-10-31T04:56:16;22.00;65.20
41533;DHT22;27262;-35.248;149.138;2022-10-31T04:58:46;21.90;65.10
41533;DHT22;27262;-35.248;149.138;2022-10-31T05:01:16;22.00;65.20
41533;DHT22;27262;-35.248;149.138;2022-10-31T05:03:47;22.00;65.20
41533;DHT22;27262;-35.248;149.138;2022-10-31T05:06:17;22.00;65.20
41533;DHT22;27262;-35.248;149.138;2022-10-31T05:08:47;22.00;65.20
41533;DHT22;27262;-35.248;149.138;2022-10-31T05:11:17;22.00;65.20
41533;DHT22;27262;-35.248;149.138;2022-10-31T05:13:48;22.00;65.30
41533;DHT22;27262;-35.248;149.138;2022-10-31T05:16:18;22.00;65.30
41533;DHT22;27262;-35.248;149.138;2022-10-31T05:18:48;22.00;65.30
41533;DHT22;27262;-35.248;149.138;2022-10-31T05:21:18;22.00;65.30
41533;DHT22;27262;-35.248;149.138;2022-10-31T05:23:48;22.00;65.30
41533;DHT22;27262;-35.248;149.138;2022-10-31T05:26:19;22.00;65.30
41533;DHT22;27262;-35.248;149.138;2022-10-31T05:28:49;22.00;65.30
41533;DHT22;27262;-35.248;149.138;2022-10-31T05:31:19;22.00;65.30
41533;DHT22;27262;-35.248;149.138;2022-10-31T05:33:50;22.00;65.40
41533;DHT22;27262;-35.248;149.138;2022-10-31T05:36:20;22.00;65.40
41533;DHT22;27262;-35.248;149.138;2022-10-31T05:38:50;22.00;65.40
41533;DHT22;27262;-35.248;149.138;2022-10-31T05:41:21;22.00;65.40
41533;DHT22;27262;-35.248;149.138;2022-10-31T05:43:52;22.00;65.40
41533;DHT22;27262;-35.248;149.138;2022-10-31T05:46:22;22.00;65.40
41533;DHT22;27262;-35.248;149.138;2022-10-31T05:48:52;22.00;65.40
41533;DHT22;27262;-35.248;149.138;2022-10-31T05:51:29;22.00;65.40
41533;DHT22;27262;-35.248;149.138;2022-10-31T05:53:59;22.00;65.40
41533;DHT22;27262;-35.248;149.138;2022-10-31T05:56:30;22.00;65.40
41533;DHT22;27262;-35.248;149.138;2022-10-31T05:59:00;22.00;65.50
41533;DHT22;27262;-35.248;149.138;2022-10-31T06:01:30;22.00;65.40
41533;DHT22;27262;-35.248;149.138;2022-10-31T06:04:01;22.00;65.40
41533;DHT22;27262;-35.248;149.138;2022-10-31T06:06:31;22.00;65.40
41533;DHT22;27262;-35.248;149.138;2022-10-31T06:09:01;22.00;65.40
41533;DHT22;27262;-35.248;149.138;2022-10-31T06:11:31;22.00;65.40
41533;DHT22;27262;-35.248;149.138;2022-10-31T06:14:02;22.00;65.40
41533;DHT22;27262;-35.248;149.138;2022-10-31T06:16:33;22.00;65.30
41533;DHT22;27262;-35.248;149.138;2022-10-31T06:19:04;22.10;65.40
41533;DHT22;27262;-35.248;149.138;2022-10-31T06:21:34;22.10;65.40
41533;DHT22;27262;-35.248;149.138;2022-10-31T06:24:04;22.00;65.30
41533;DHT22;27262;-35.248;149.138;2022-10-31T06:26:34;22.10;65.40
41533;DHT22;27262;-35.248;149.138;2022-10-31T06:29:05;22.10;65.40
41533;DHT22;27262;-35.248;149.138;2022-10-31T06:31:35;22.00;65.40
41533;DHT22;27262;-35.248;149.138;2022-10-31T06:34:05;22.00;65.40
41533;DHT22;27262;-35.248;149.138;2022-10-31T06:36:35;22.10;65.50
41533;DHT22;27262;-35.248;149.138;2022-10-31T06:39:06;22.10;65.40
41533;DHT22;27262;-35.248;149.138;2022-10-31T06:41:36;22.10;65.30
41533;DHT22;27262;-35.248;149.138;2022-10-31T06:44:07;22.10;65.30
41533;DHT22;27262;-35.248;149.138;2022-10-31T06:46:37;22.20;65.20
41533;DHT22;27262;-35.248;149.138;2022-10-31T06:49:08;22.10;65.20
41533;DHT22;27262;-35.248;149.138;2022-10-31T06:51:38;22.20;65.20
41533;DHT22;27262;-35.248;149.138;2022-10-31T06:54:08;22.20;65.00
41533;DHT22;27262;-35.248;149.138;2022-10-31T06:56:38;22.20;65.00
41533;DHT22;27262;-35.248;149.138;2022-10-31T06:59:09;22.20;65.00
41533;DHT22;27262;-35.248;149.138;2022-10-31T07:01:39;22.30;64.90
41533;DHT22;27262;-35.248;149.138;2022-10-31T07:04:12;22.30;64.90
41533;DHT22;27262;-35.248;149.138;2022-10-31T07:06:43;22.30;64.80
41533;DHT22;27262;-35.248;149.138;2022-10-31T07:09:18;22.70;63.60
41533;DHT22;27262;-35.248;149.138;2022-10-31T07:11:50;22.60;63.90
41533;DHT22;27262;-35.248;149.138;2022-10-31T07:14:21;22.50;64.20
41533;DHT22;27262;-35.248;149.138;2022-10-31T07:16:52;22.40;64.30
41533;DHT22;27262;-35.248;149.138;2022-10-31T07:19:22;22.40;64.40
41533;DHT22;27262;-35.248;149.138;2022-10-31T07:21:52;22.40;64.50
41533;DHT22;27262;-35.248;149.138;2022-10-31T07:24:22;22.30;64.50
41533;DHT22;27262;-35.248;149.138;2022-10-31T07:26:52;22.30;64.60
41533;DHT22;27262;-35.248;149.138;2022-10-31T07:29:23;22.40;64.70
41533;DHT22;27262;-35.248;149.138;2022-10-31T07:31:53;22.30;64.60
41533;DHT22;27262;-35.248;149.138;2022-10-31T07:34:23;22.30;64.60
41533;DHT22;27262;-35.248;149.138;2022-10-31T07:36:53;22.30;64.70
41533;DHT22;27262;-35.248;149.138;2022-10-31T07:39:23;22.30;64.70
41533;DHT22;27262;-35.248;149.138;2022-10-31T07:41:54;22.30;64.80
41533;DHT22;27262;-35.248;149.138;2022-10-31T07:44:24;22.30;64.80
41533;DHT22;27262;-35.248;149.138;2022-10-31T07:46:54;22.30;64.90
41533;DHT22;27262;-35.248;149.138;2022-10-31T07:49:25;22.30;64.90
41533;DHT22;27262;-35.248;149.138;2022-10-31T07:51:55;22.30;65.00
41533;DHT22;27262;-35.248;149.138;2022-10-31T07:54:26;22.30;65.10
41533;DHT22;27262;-35.248;149.138;2022-10-31T07:56:56;22.30;65.20
41533;DHT22;27262;-35.248;149.138;2022-10-31T07:59:27;22.30;65.30
41533;DHT22;27262;-35.248;149.138;2022-10-31T08:01:57;22.30;65.30
41533;DHT22;27262;-35.248;149.138;2022-10-31T08:04:27;22.30;65.40
41533;DHT22;27262;-35.248;149.138;2022-10-31T08:06:57;22.30;65.50
41533;DHT22;27262;-35.248;149.138;2022-10-31T08:09:28;22.30;65.50
41533;DHT22;27262;-35.248;149.138;2022-10-31T08:11:58;22.30;65.50
41533;DHT22;27262;-35.248;149.138;2022-10-31T08:14:29;22.20;65.50
41533;DHT22;27262;-35.248;149.138;2022-10-31T08:16:59;22.30;65.60
41533;DHT22;27262;-35.248;149.138;2022-10-31T08:19:30;22.30;65.70
41533;DHT22;27262;-35.248;149.138;2022-10-31T08:22:00;22.30;65.70
41533;DHT22;27262;-35.248;149.138;2022-10-31T08:24:31;22.20;65.70
41533;DHT22;27262;-35.248;149.138;2022-10-31T08:27:01;22.30;65.90
41533;DHT22;27262;-35.248;149.138;2022-10-31T08:29:32;22.30;65.90
41533;DHT22;27262;-35.248;149.138;2022-10-31T08:32:02;22.20;65.90
41533;DHT22;27262;-35.248;149.138;2022-10-31T08:34:32;22.30;65.90
41533;DHT22;27262;-35.248;149.138;2022-10-31T08:37:02;22.20;65.80
41533;DHT22;27262;-35.248;149.138;2022-10-31T08:39:33;22.20;65.90
41533;DHT22;27262;-35.248;149.138;2022-10-31T08:42:03;22.20;65.90
41533;DHT22;27262;-35.248;149.138;2022-10-31T08:44:33;22.30;66.00
41533;DHT22;27262;-35.248;149.138;2022-10-31T08:47:03;22.20;65.90
41533;DHT22;27262;-35.248;149.138;2022-10-31T08:49:33;22.20;66.00
41533;DHT22;27262;-35.248;149.138;2022-10-31T08:52:04;22.20;66.00
41533;DHT22;27262;-35.248;149.138;2022-10-31T08:54:40;22.20;66.00
41533;DHT22;27262;-35.248;149.138;2022-10-31T08:57:11;22.20;66.10
41533;DHT22;27262;-35.248;149.138;2022-10-31T08:59:41;22.20;66.00
41533;DHT22;27262;-35.248;149.138;2022-10-31T09:02:11;22.20;66.10
41533;DHT22;27262;-35.248;149.138;2022-10-31T09:04:41;22.20;66.10
41533;DHT22;27262;-35.248;149.138;2022-10-31T09:07:12;22.20;66.10
41533;DHT22;27262;-35.248;149.138;2022-10-31T09:09:48;22.20;66.10
41533;DHT22;27262;-35.248;149.138;2022-10-31T09:12:18;22.20;66.10
41533;DHT22;27262;-35.248;149.138;2022-10-31T09:14:48;22.20;66.10
41533;DHT22;27262;-35.248;149.138;2022-10-31T09:17:19;22.20;66.10
41533;DHT22;27262;-35.248;149.138;2022-10-31T09:19:49;22.10;66.10
41533;DHT22;27262;-35.248;149.138;2022-10-31T09:22:19;22.20;66.10
41533;DHT22;27262;-35.248;149.138;2022-10-31T09:24:49;22.10;66.10
41533;DHT22;27262;-35.248;149.138;2022-10-31T09:27:19;22.20;66.10
41533;DHT22;27262;-35.248;149.138;2022-10-31T09:29:50;22.20;66.10
41533;DHT22;27262;-35.248;149.138;2022-10-31T09:32:20;22.20;66.10
41533;DHT22;27262;-35.248;149.138;2022-10-31T09:34:50;22.10;66.10
41533;DHT22;27262;-35.248;149.138;2022-10-31T09:37:20;22.10;66.10
41533;DHT22;27262;-35.248;149.138;2022-10-31T09:39:51;22.20;66.10
41533;DHT22;27262;-35.248;149.138;2022-10-31T09:42:51;22.20;66.10
41533;DHT22;27262;-35.248;149.138;2022-10-31T09:54:25;22.10;66.10
41533;DHT22;27262;-35.248;149.138;2022-10-31T09:56:58;22.10;66.30
41533;DHT22;27262;-35.248;149.138;2022-10-31T09:59:36;22.10;66.30
41533;DHT22;27262;-35.248;149.138;2022-10-31T10:02:18;22.10;66.20
41533;DHT22;27262;-35.248;149.138;2022-10-31T10:10:16;22.10;66.20
41533;DHT22;27262;-35.248;149.138;2022-10-31T10:12:59;22.10;66.30
41533;DHT22;27262;-35.248;149.138;2022-10-31T10:16:03;22.10;66.30
41533;DHT22;27262;-35.248;149.138;2022-10-31T10:19:09;22.10;66.20
41533;DHT22;27262;-35.248;149.138;2022-10-31T10:27:39;22.10;66.20
41533;DHT22;27262;-35.248;149.138;2022-10-31T10:30:18;22.10;66.30
41533;DHT22;27262;-35.248;149.138;2022-10-31T10:32:58;22.10;66.30
41533;DHT22;27262;-35.248;149.138;2022-10-31T10:35:53;22.10;66.30
41533;DHT22;27262;-35.248;149.138;2022-10-31T10:39:04;22.10;66.20
41533;DHT22;27262;-35.248;149.138;2022-10-31T10:41:42;22.10;66.20
41533;DHT22;27262;-35.248;149.138;2022-10-31T10:44:13;22.10;66.40
41533;DHT22;27262;-35.248;149.138;2022-10-31T10:46:53;22.10;66.40
41533;DHT22;27262;-35.248;149.138;2022-10-31T10:49:53;22.10;66.30
41533;DHT22;27262;-35.248;149.138;2022-10-31T10:52:45;22.10;66.40
41533;DHT22;27262;-35.248;149.138;2022-10-31T10:55:42;22.10;66.30
41533;DHT22;27262;-35.248;149.138;2022-10-31T10:58:15;22.00;66.30
41533;DHT22;27262;-35.248;149.138;2022-10-31T11:00:47;22.00;66.40
41533;DHT22;27262;-35.248;149.138;2022-10-31T11:03:19;22.00;66.40
41533;DHT22;27262;-35.248;149.138;2022-10-31T11:05:53;22.00;66.40
41533;DHT22;27262;-35.248;149.138;2022-10-31T11:08:34;22.00;66.30
41533;DHT22;27262;-35.248;149.138;2022-10-31T11:11:28;22.00;66.30
41533;DHT22;27262;-35.248;149.138;2022-10-31T11:14:05;22.00;66.30
41533;DHT22;27262;-35.248;149.138;2022-10-31T11:16:48;22.00;66.40
41533;DHT22;27262;-35.248;149.138;2022-10-31T11:19:24;22.00;66.40
41533;DHT22;27262;-35.248;149.138;2022-10-31T11:22:07;22.00;66.30
41533;DHT22;27262;-35.248;149.138;2022-10-31T11:24:40;22.00;66.40
41533;DHT22;27262;-35.248;149.138;2022-10-31T11:27:31;22.00;66.50
41533;DHT22;27262;-35.248;149.138;2022-10-31T11:30:09;22.00;66.30
41533;DHT22;27262;-35.248;149.138;2022-10-31T11:32:49;22.00;66.40
41533;DHT22;27262;-35.248;149.138;2022-10-31T11:35:23;22.00;66.40
41533;DHT22;27262;-35.248;149.138;2022-10-31T11:37:56;21.90;66.40
41533;DHT22;27262;-35.248;149.138;2022-10-31T11:40:28;22.00;66.40
41533;DHT22;27262;-35.248;149.138;2022-10-31T11:42:59;22.00;66.40
41533;DHT22;27262;-35.248;149.138;2022-10-31T11:45:33;22.00;66.40
41533;DHT22;27262;-35.248;149.138;2022-10-31T11:48:17;22.00;66.40
41533;DHT22;27262;-35.248;149.138;2022-10-31T11:50:51;22.00;66.40
41533;DHT22;27262;-35.248;149.138;2022-10-31T11:53:34;22.00;66.40
41533;DHT22;27262;-35.248;149.138;2022-10-31T11:56:12;22.00;66.30
41533;DHT22;27262;-35.248;149.138;2022-10-31T11:58:43;21.90;66.50
41533;DHT22;27262;-35.248;149.138;2022-10-31T12:01:28;21.90;66.60
41533;DHT22;27262;-35.248;149.138;2022-10-31T12:04:04;21.90;66.60
41533;DHT22;27262;-35.248;149.138;2022-10-31T12:06:41;21.90;66.80
41533;DHT22;27262;-35.248;149.138;2022-10-31T12:09:20;21.90;66.90
41533;DHT22;27262;-35.248;149.138;2022-10-31T12:17:29;21.80;66.90
41533;DHT22;27262;-35.248;149.138;2022-10-31T12:39:40;21.80;67.10
41533;DHT22;27262;-35.248;149.138;2022-10-31T12:59:48;21.70;67.10
41533;DHT22;27262;-35.248;149.138;2022-10-31T13:10:30;21.70;67.20
41533;DHT22;27262;-35.248;149.138;2022-10-31T13:16:17;21.70;67.20
41533;DHT22;27262;-35.248;149.138;2022-10-31T13:19:17;21.70;67.20
41533;DHT22;27262;-35.248;149.138;2022-10-31T13:24:48;21.60;67.20
41533;DHT22;27262;-35.248;149.138;2022-10-31T13:27:33;21.60;67.20
41533;DHT22;27262;-35.248;149.138;2022-10-31T13:30:28;21.60;67.20
41533;DHT22;27262;-35.248;149.138;2022-10-31T13:38:41;21.60;67.30
41533;DHT22;27262;-35.248;149.138;2022-10-31T13:44:27;21.60;67.30
41533;DHT22;27262;-35.248;149.138;2022-10-31T13:47:22;21.60;67.30
41533;DHT22;27262;-35.248;149.138;2022-10-31T13:50:05;21.60;67.30
41533;DHT22;27262;-35.248;149.138;2022-10-31T13:52:36;21.50;67.20
41533;DHT22;27262;-35.248;149.138;2022-10-31T13:55:37;21.50;67.30
41533;DHT22;27262;-35.248;149.138;2022-10-31T13:58:36;21.50;67.10
41533;DHT22;27262;-35.248;149.138;2022-10-31T14:01:15;21.50;67.10
41533;DHT22;27262;-35.248;149.138;2022-10-31T14:03:56;21.50;67.20
41533;DHT22;27262;-35.248;149.138;2022-10-31T14:06:49;21.50;67.30
41533;DHT22;27262;-35.248;149.138;2022-10-31T14:17:58;21.50;67.30
41533;DHT22;27262;-35.248;149.138;2022-10-31T14:20:45;21.50;67.30
41533;DHT22;27262;-35.248;149.138;2022-10-31T14:23:35;21.40;67.20
41533;DHT22;27262;-35.248;149.138;2022-10-31T14:29:23;21.50;67.30
41533;DHT22;27262;-35.248;149.138;2022-10-31T14:31:57;21.50;67.30
41533;DHT22;27262;-35.248;149.138;2022-10-31T14:51:43;21.40;67.30
41533;DHT22;27262;-35.248;149.138;2022-10-31T14:54:37;21.40;67.30
41533;DHT22;27262;-35.248;149.138;2022-10-31T14:57:30;21.40;67.40
41533;DHT22;27262;-35.248;149.138;2022-10-31T15:00:15;21.30;67.30
41533;DHT22;27262;-35.248;149.138;2022-10-31T15:05:27;21.30;67.40
41533;DHT22;27262;-35.248;149.138;2022-10-31T15:07:59;21.30;67.40
41533;DHT22;27262;-35.248;149.138;2022-10-31T15:10:33;21.30;67.50
41533;DHT22;27262;-35.248;149.138;2022-10-31T15:13:13;21.30;67.50
41533;DHT22;27262;-35.248;149.138;2022-10-31T15:15:46;21.30;67.60
41533;DHT22;27262;-35.248;149.138;2022-10-31T15:18:25;21.30;67.60
41533;DHT22;27262;-35.248;149.138;2022-10-31T15:20:57;21.30;67.60
41533;DHT22;27262;-35.248;149.138;2022-10-31T15:23:31;21.30;67.60
41533;DHT22;27262;-35.248;149.138;2022-10-31T15:26:03;21.30;67.50
41533;DHT22;27262;-35.248;149.138;2022-10-31T15:28:34;21.20;67.50
41533;DHT22;27262;-35.248;149.138;2022-10-31T15:31:05;21.20;67.40
41533;DHT22;27262;-35.248;149.138;2022-10-31T15:33:42;21.20;67.40
41533;DHT22;27262;-35.248;149.138;2022-10-31T15:36:22;21.20;67.40
41533;DHT22;27262;-35.248;149.138;2022-10-31T15:38:58;21.20;67.40
41533;DHT22;27262;-35.248;149.138;2022-10-31T15:41:55;21.20;67.40
41533;DHT22;27262;-35.248;149.138;2022-10-31T15:44:26;21.20;67.40
41533;DHT22;27262;-35.248;149.138;2022-10-31T15:47:04;21.10;67.40
41533;DHT22;27262;-35.248;149.138;2022-10-31T15:49:52;21.10;67.30
41533;DHT22;27262;-35.248;149.138;2022-10-31T15:55:04;21.10;67.30
41533;DHT22;27262;-35.248;149.138;2022-10-31T15:57:44;21.10;67.30
41533;DHT22;27262;-35.248;149.138;2022-10-31T16:00:32;21.10;67.30
41533;DHT22;27262;-35.248;149.138;2022-10-31T16:05:48;21.10;67.20
41533;DHT22;27262;-35.248;149.138;2022-10-31T16:13:54;21.10;67.20
41533;DHT22;27262;-35.248;149.138;2022-10-31T16:16:26;21.10;67.10
41533;DHT22;27262;-35.248;149.138;2022-10-31T16:19:04;21.00;67.10
41533;DHT22;27262;-35.248;149.138;2022-10-31T16:21:37;21.00;67.10
41533;DHT22;27262;-35.248;149.138;2022-10-31T16:24:21;21.00;67.00
41533;DHT22;27262;-35.248;149.138;2022-10-31T16:26:54;21.00;66.90
41533;DHT22;27262;-35.248;149.138;2022-10-31T16:32:04;21.00;67.00
41533;DHT22;27262;-35.248;149.138;2022-10-31T16:34:34;21.00;66.90
41533;DHT22;27262;-35.248;149.138;2022-10-31T16:37:04;21.00;66.90
41533;DHT22;27262;-35.248;149.138;2022-10-31T16:39:34;21.00;66.80
41533;DHT22;27262;-35.248;149.138;2022-10-31T16:42:07;21.00;66.80
41533;DHT22;27262;-35.248;149.138;2022-10-31T16:44:38;20.90;66.70
41533;DHT22;27262;-35.248;149.138;2022-10-31T16:47:14;20.90;66.70
41533;DHT22;27262;-35.248;149.138;2022-10-31T16:49:48;20.90;66.70
41533;DHT22;27262;-35.248;149.138;2022-10-31T16:52:19;20.90;66.70
41533;DHT22;27262;-35.248;149.138;2022-10-31T16:54:49;20.90;66.70
41533;DHT22;27262;-35.248;149.138;2022-10-31T16:57:23;20.90;66.70
41533;DHT22;27262;-35.248;149.138;2022-10-31T16:59:57;20.90;66.60
41533;DHT22;27262;-35.248;149.138;2022-10-31T17:02:27;20.90;66.70
41533;DHT22;27262;-35.248;149.138;2022-10-31T17:04:58;20.90;66.60
41533;DHT22;27262;-35.248;149.138;2022-10-31T17:07:28;20.90;66.60
41533;DHT22;27262;-35.248;149.138;2022-10-31T17:09:59;20.90;66.50
41533;DHT22;27262;-35.248;149.138;2022-10-31T17:12:29;20.80;66.50
41533;DHT22;27262;-35.248;149.138;2022-10-31T17:15:00;20.80;66.50
41533;DHT22;27262;-35.248;149.138;2022-10-31T17:17:31;20.80;66.50
41533;DHT22;27262;-35.248;149.138;2022-10-31T17:20:01;20.80;66.50
41533;DHT22;27262;-35.248;149.138;2022-10-31T17:22:31;20.80;66.40
41533;DHT22;27262;-35.248;149.138;2022-10-31T17:25:02;20.80;66.40
41533;DHT22;27262;-35.248;149.138;2022-10-31T17:27:32;20.80;66.40
41533;DHT22;27262;-35.248;149.138;2022-10-31T17:30:02;20.70;66.40
41533;DHT22;27262;-35.248;149.138;2022-10-31T17:32:33;20.70;66.40
41533;DHT22;27262;-35.248;149.138;2022-10-31T17:35:03;20.70;66.40
41533;DHT22;27262;-35.248;149.138;2022-10-31T17:37:33;20.70;66.30
41533;DHT22;27262;-35.248;149.138;2022-10-31T17:40:04;20.70;66.30
41533;DHT22;27262;-35.248;149.138;2022-10-31T17:42:35;20.70;66.40
41533;DHT22;27262;-35.248;149.138;2022-10-31T17:45:06;20.70;66.30
41533;DHT22;27262;-35.248;149.138;2022-10-31T17:47:36;20.70;66.30
41533;DHT22;27262;-35.248;149.138;2022-10-31T17:50:07;20.70;66.30
41533;DHT22;27262;-35.248;149.138;2022-10-31T17:52:37;20.60;66.20
41533;DHT22;27262;-35.248;149.138;2022-10-31T17:55:08;20.60;66.20
41533;DHT22;27262;-35.248;149.138;2022-10-31T17:57:39;20.60;66.20
41533;DHT22;27262;-35.248;149.138;2022-10-31T18:00:13;20.60;66.20
41533;DHT22;27262;-35.248;149.138;2022-10-31T18:02:43;20.60;66.20
41533;DHT22;27262;-35.248;149.138;2022-10-31T18:05:13;20.60;66.30
41533;DHT22;27262;-35.248;149.138;2022-10-31T18:07:44;20.60;66.30
41533;DHT22;27262;-35.248;149.138;2022-10-31T18:10:14;20.60;66.30